createdAt,value
2022-09-25T00:04:05.818Z,99.90
2022-09-25T00:08:28.361Z,99.90
2022-09-25T00:12:51.501Z,99.90
2022-09-25T00:17:13.866Z,99.90
2022-09-25T00:21:37.810Z,99.90
2022-09-25T00:26:00.361Z,99.90
2022-09-25T00:30:24.163Z,99.90
2022-09-25T00:34:46.821Z,99.90
2022-09-25T00:39:09.228Z,99.90
2022-09-25T00:43:40.786Z,99.90
2022-09-25T00:48:08.862Z,99.90
2022-09-25T00:52:32.121Z,99.90
2022-09-25T00:56:57.503Z,99.90
2022-09-25T01:01:19.691Z,99.90
2022-09-25T01:05:45.142Z,99.90
2022-09-25T01:10:09.274Z,99.90
2022-09-25T01:14:35.041Z,99.90
2022-09-25T01:19:42.302Z,99.90
2022-09-25T01:24:41.952Z,99.90
2022-09-25T01:29:28.022Z,99.90
2022-09-25T01:34:01.141Z,99.90
2022-09-25T01:38:50.601Z,99.90
2022-09-25T01:43:28.201Z,99.90
2022-09-25T01:47:53.386Z,99.90
2022-09-25T01:52:21.782Z,99.90
2022-09-25T01:57:17.915Z,99.90
2022-09-25T02:01:44.761Z,99.90
2022-09-25T02:06:10.661Z,99.90
2022-09-25T02:10:46.501Z,99.90
2022-09-25T02:15:12.240Z,99.90
2022-09-25T02:19:53.261Z,99.90
2022-09-25T02:24:49.201Z,99.90
2022-09-25T02:29:11.562Z,99.90
2022-09-25T02:33:34.905Z,99.90
2022-09-25T02:37:57.961Z,99.90
2022-09-25T02:42:41.643Z,99.90
2022-09-25T02:47:48.042Z,99.90
2022-09-25T02:52:19.562Z,99.90
2022-09-25T02:57:01.386Z,99.90
2022-09-25T03:01:29.437Z,99.90
2022-09-25T03:05:55.621Z,99.90
2022-09-25T03:10:19.120Z,99.90
2022-09-25T03:14:41.683Z,99.90
2022-09-25T03:19:04.460Z,99.90
2022-09-25T03:23:26.643Z,99.90
2022-09-25T03:27:49.061Z,99.90
2022-09-25T03:32:11.216Z,99.90
2022-09-25T03:36:34.401Z,99.90
2022-09-25T03:40:56.786Z,99.90
2022-09-25T03:45:19.181Z,99.90
2022-09-25T03:49:41.423Z,99.90
2022-09-25T03:54:04.340Z,99.90
2022-09-25T03:58:27.202Z,99.90
2022-09-25T04:02:50.710Z,99.90
2022-09-25T04:07:13.402Z,99.90
2022-09-25T04:11:38.302Z,99.90
2022-09-25T04:16:01.798Z,99.90
2022-09-25T04:20:24.461Z,99.90
2022-09-25T04:24:49.885Z,99.90
2022-09-25T04:29:11.961Z,99.90
2022-09-25T04:33:46.627Z,99.90
2022-09-25T04:38:10.071Z,99.90
2022-09-25T04:42:35.048Z,99.90
2022-09-25T04:46:57.590Z,99.90
2022-09-25T04:51:19.929Z,99.90
2022-09-25T04:55:42.191Z,99.90
2022-09-25T05:00:06.892Z,99.90
2022-09-25T05:04:29.068Z,99.90
2022-09-25T05:08:51.209Z,99.90
2022-09-25T05:13:13.308Z,99.90
2022-09-25T05:17:35.349Z,99.90
2022-09-25T05:21:57.474Z,99.90
2022-09-25T05:26:19.788Z,99.90
2022-09-25T05:30:43.988Z,99.90
2022-09-25T05:35:07.328Z,99.90
2022-09-25T05:39:29.650Z,99.90
2022-09-25T05:43:51.848Z,99.90
2022-09-25T05:48:13.772Z,99.90
2022-09-25T05:52:37.348Z,99.90
2022-09-25T05:56:59.610Z,99.90
2022-09-25T06:01:22.002Z,99.90
2022-09-25T06:05:47.089Z,99.90
2022-09-25T06:10:10.359Z,99.90
2022-09-25T06:14:37.309Z,99.90
2022-09-25T06:18:59.728Z,99.90
2022-09-25T06:23:24.358Z,99.90
2022-09-25T06:27:46.628Z,99.90
2022-09-25T06:32:08.809Z,99.90
2022-09-25T06:36:31.749Z,99.90
2022-09-25T06:40:54.972Z,99.90
2022-09-25T06:45:20.852Z,99.90
2022-09-25T06:49:42.840Z,99.90
2022-09-25T06:54:05.166Z,99.90
2022-09-25T06:58:28.008Z,99.90
2022-09-25T07:03:08.867Z,99.90
2022-09-25T07:07:31.869Z,99.90
2022-09-25T07:11:56.534Z,99.90
2022-09-25T07:16:21.014Z,99.90
2022-09-25T07:20:46.302Z,99.90
2022-09-25T07:25:12.758Z,99.90
2022-09-25T07:29:35.866Z,99.90
2022-09-25T07:34:09.319Z,99.90
2022-09-25T07:38:32.130Z,99.90
2022-09-25T07:42:58.928Z,99.90
2022-09-25T07:47:20.989Z,99.90
2022-09-25T07:51:43.400Z,99.90
2022-09-25T07:56:07.129Z,99.90
2022-09-25T08:00:29.869Z,99.90
2022-09-25T08:04:51.948Z,99.90
2022-09-25T08:09:14.471Z,96.90
2022-09-25T08:13:38.697Z,82.60
2022-09-25T08:18:00.849Z,68.00
2022-09-25T08:22:23.984Z,59.10
2022-09-25T08:26:47.491Z,55.70
2022-09-25T08:31:10.043Z,53.50
2022-09-25T08:35:32.237Z,51.70
2022-09-25T08:39:54.288Z,51.10
2022-09-25T08:44:33.109Z,52.50
2022-09-25T08:49:03.867Z,54.10
2022-09-25T08:53:26.749Z,52.90
2022-09-25T08:57:50.680Z,51.10
2022-09-25T09:02:39.989Z,48.80
2022-09-25T09:07:37.374Z,47.70
2022-09-25T09:12:08.404Z,47.10
2022-09-25T09:16:42.468Z,48.30
2022-09-25T09:21:28.836Z,46.70
2022-09-25T09:26:32.167Z,44.80
2022-09-25T09:31:00.399Z,43.70
2022-09-25T09:35:56.699Z,43.70
2022-09-25T09:40:51.992Z,43.60
2022-09-25T09:45:45.238Z,44.60
2022-09-25T09:50:52.926Z,44.40
2022-09-25T09:55:50.294Z,44.70
2022-09-25T10:00:19.247Z,43.70
2022-09-25T10:04:42.970Z,41.70
2022-09-25T10:09:05.507Z,41.20
2022-09-25T10:13:36.421Z,40.80
2022-09-25T10:18:02.463Z,41.40
2022-09-25T10:23:06.703Z,41.20
2022-09-25T10:27:37.510Z,41.70
2022-09-25T10:32:04.316Z,41.10
2022-09-25T10:36:45.732Z,41.40
2022-09-25T10:41:22.929Z,40.90
2022-09-25T10:45:45.568Z,40.00
2022-09-25T10:50:27.594Z,40.50
2022-09-25T10:55:25.088Z,39.70
2022-09-25T10:59:52.630Z,40.10
2022-09-25T11:04:35.441Z,38.70
2022-09-25T11:09:26.377Z,38.70
2022-09-25T11:13:54.515Z,39.20
2022-09-25T11:18:39.056Z,40.30
2022-09-25T11:23:25.057Z,45.00
2022-09-25T11:28:07.096Z,47.80
2022-09-25T11:33:05.855Z,49.60
2022-09-25T11:38:02.556Z,52.00
2022-09-25T11:42:31.919Z,53.90
2022-09-25T11:47:19.232Z,54.50
2022-09-25T11:52:03.836Z,55.50
2022-09-25T11:56:50.595Z,55.40
2022-09-25T12:01:42.293Z,54.50
2022-09-25T12:06:35.070Z,55.50
2022-09-25T12:11:56.957Z,56.70
2022-09-25T12:17:16.237Z,57.00
2022-09-25T12:22:23.076Z,58.20
2022-09-25T12:27:58.375Z,61.70
2022-09-25T12:33:25.549Z,62.70
2022-09-25T12:38:03.045Z,63.60
2022-09-25T12:43:00.508Z,65.60
2022-09-25T12:47:46.677Z,66.60
2022-09-25T12:52:29.824Z,68.60
2022-09-25T12:57:01.410Z,72.90
2022-09-25T13:01:42.262Z,73.80
2022-09-25T13:06:31.916Z,74.40
2022-09-25T13:11:12.516Z,76.90
2022-09-25T13:15:43.174Z,79.20
2022-09-25T13:20:37.470Z,79.40
2022-09-25T13:25:20.325Z,80.70
2022-09-25T13:29:43.575Z,79.50
2022-09-25T13:34:12.569Z,80.30
2022-09-25T13:39:03.834Z,83.00
2022-09-25T13:43:29.395Z,85.10
2022-09-25T13:48:01.749Z,85.90
2022-09-25T13:53:22.924Z,87.80
2022-09-25T13:58:03.555Z,87.90
2022-09-25T14:02:46.697Z,89.10
2022-09-25T14:07:26.736Z,90.00
2022-09-25T14:12:38.516Z,90.60
2022-09-25T14:17:01.340Z,90.20
2022-09-25T14:21:24.237Z,90.30
2022-09-25T14:25:47.995Z,90.60
2022-09-25T14:30:15.068Z,90.70
2022-09-25T14:35:17.957Z,90.60
2022-09-25T14:40:21.820Z,90.00
2022-09-25T14:45:06.341Z,90.30
2022-09-25T14:49:39.236Z,90.40
2022-09-25T14:54:07.984Z,90.80
2022-09-25T14:58:33.095Z,91.20
2022-09-25T15:02:58.182Z,93.20
2022-09-25T15:07:25.519Z,95.60
2022-09-25T15:11:47.475Z,98.20
2022-09-25T15:16:44.481Z,99.90
2022-09-25T15:21:17.716Z,99.90
2022-09-25T15:25:46.116Z,99.90
2022-09-25T15:30:17.296Z,99.90
2022-09-25T15:34:40.377Z,99.90
2022-09-25T15:39:17.456Z,99.90
2022-09-25T15:43:39.775Z,99.90
2022-09-25T15:48:11.576Z,99.90
2022-09-25T15:52:34.797Z,99.90
2022-09-25T15:56:58.935Z,99.90
2022-09-25T16:01:44.948Z,99.90
2022-09-25T16:06:16.436Z,99.90
2022-09-25T16:10:39.274Z,99.90
2022-09-25T16:15:26.637Z,99.90
2022-09-25T16:20:08.496Z,99.90
2022-09-25T16:24:31.336Z,99.90
2022-09-25T16:29:11.914Z,99.90
2022-09-25T16:33:44.919Z,99.90
2022-09-25T16:38:07.815Z,99.90
2022-09-25T16:42:39.755Z,99.90
2022-09-25T16:47:20.515Z,99.90
2022-09-25T16:51:46.556Z,99.90
2022-09-25T16:56:09.196Z,99.90
2022-09-25T17:00:31.637Z,99.90
2022-09-25T17:04:54.077Z,99.90
2022-09-25T17:09:18.296Z,99.90
2022-09-25T17:13:40.995Z,99.90
2022-09-25T17:18:11.755Z,99.90
2022-09-25T17:22:34.335Z,99.90
2022-09-25T17:26:56.936Z,99.90
2022-09-25T17:31:22.484Z,99.90
2022-09-25T17:36:05.876Z,99.90
2022-09-25T17:40:30.755Z,99.90
2022-09-25T17:44:53.417Z,99.90
2022-09-25T17:49:15.915Z,99.90
2022-09-25T17:53:38.636Z,99.90
2022-09-25T17:58:00.597Z,99.90
2022-09-25T18:02:22.610Z,99.90
2022-09-25T18:06:45.217Z,99.90
2022-09-25T18:11:11.036Z,99.90
2022-09-25T18:15:35.068Z,99.90
2022-09-25T18:20:16.068Z,99.90
2022-09-25T18:24:38.072Z,99.90
2022-09-25T18:29:00.107Z,99.90
2022-09-25T18:33:24.328Z,99.90
2022-09-25T18:37:48.134Z,99.90
2022-09-25T18:42:10.255Z,99.90
2022-09-25T18:46:33.925Z,99.90
2022-09-25T18:50:56.188Z,99.90
2022-09-25T18:55:18.596Z,99.90
2022-09-25T18:59:41.675Z,99.90
2022-09-25T19:04:05.483Z,99.90
2022-09-25T19:08:27.591Z,99.90
2022-09-25T19:12:49.919Z,99.90
2022-09-25T19:17:13.176Z,99.90
2022-09-25T19:21:36.066Z,99.90
2022-09-25T19:26:05.357Z,99.90
2022-09-25T19:30:27.916Z,99.90
2022-09-25T19:34:50.966Z,99.90
2022-09-25T19:39:13.181Z,99.90
2022-09-25T19:43:35.879Z,99.90
2022-09-25T19:47:58.015Z,99.90
2022-09-25T19:52:22.449Z,99.90
2022-09-25T19:56:46.758Z,99.90
2022-09-25T20:01:34.223Z,99.90
2022-09-25T20:05:56.718Z,99.90
2022-09-25T20:10:19.734Z,99.90
2022-09-25T20:14:42.196Z,99.90
2022-09-25T20:19:07.105Z,99.90
2022-09-25T20:23:30.235Z,99.90
2022-09-25T20:27:52.915Z,99.90
2022-09-25T20:32:15.119Z,99.90
2022-09-25T20:36:39.314Z,99.90
2022-09-25T20:41:02.759Z,99.90
2022-09-25T20:45:25.295Z,99.90
2022-09-25T20:49:47.554Z,99.90
2022-09-25T20:54:10.912Z,99.90
2022-09-25T20:58:35.435Z,99.90
2022-09-25T21:02:57.426Z,99.90
2022-09-25T21:07:20.854Z,99.90
2022-09-25T21:11:43.855Z,99.90
2022-09-25T21:16:15.005Z,99.90
2022-09-25T21:20:37.035Z,99.90
2022-09-25T21:24:59.234Z,99.90
2022-09-25T21:29:21.634Z,99.90
2022-09-25T21:33:44.774Z,99.90
2022-09-25T21:38:07.196Z,99.90
2022-09-25T21:42:30.037Z,99.90
2022-09-25T21:46:52.454Z,99.90
2022-09-25T21:51:15.815Z,99.90
2022-09-25T21:55:38.316Z,99.90
2022-09-25T22:00:00.461Z,99.90
2022-09-25T22:04:22.716Z,99.90
2022-09-25T22:08:49.356Z,99.90
2022-09-25T22:13:11.596Z,99.90
2022-09-25T22:17:33.855Z,99.90
2022-09-25T22:21:59.196Z,99.90
2022-09-25T22:26:23.016Z,99.90
2022-09-25T22:30:45.563Z,99.90
2022-09-25T22:35:08.135Z,99.90
2022-09-25T22:39:30.998Z,99.90
2022-09-25T22:43:55.310Z,99.90
2022-09-25T22:48:17.757Z,99.90
2022-09-25T22:52:40.055Z,99.90
2022-09-25T22:57:02.318Z,99.90
2022-09-25T23:01:36.826Z,99.90
2022-09-25T23:06:03.915Z,99.90
2022-09-25T23:10:35.033Z,99.90
2022-09-25T23:15:05.776Z,99.90
2022-09-25T23:19:28.287Z,99.90
2022-09-25T23:23:50.515Z,99.90
2022-09-25T23:28:13.475Z,99.90
2022-09-25T23:32:36.675Z,99.90
2022-09-25T23:36:59.014Z,99.90
2022-09-25T23:41:28.355Z,99.90
2022-09-25T23:45:50.991Z,99.90
2022-09-25T23:50:13.574Z,99.90
2022-09-25T23:54:36.375Z,99.90
2022-09-25T23:59:01.465Z,99.90
